EXS72UW LEIB-EGBB
Flight info
| Callsign | EXS72UW |
|---|---|
| Flight time | N/A |
| Altitude | 38000 |
| Route | EPAMA4F EPAMA DCT MARTA DCT EBROX DCT UMURE N863 GIROM DCT GONUP DCT TUPAR UN861 DIKRO UM184 HEMEL HEMEL1B |
| Aircraft | B738/M-SDE2E3FGHIRWXY/LB1 |
Departure
| Time | 2026-04-30 21:47 |
|---|---|
| Airport | Ibiza Airport (LEIB) |
Arrival
| Time | N/A |
|---|---|
| Airport | Birmingham Airport (EGBB) |
| Time | Latitude | Longitude | Altitude | Speed | Heading |
|---|---|---|---|---|---|
| 2026-04-30 21:24 | 38.87494 | 1.37093 | 7 ft | 0 kts | 332° |
| 2026-04-30 21:43 | 38.87500 | 1.37089 | 10 ft | 3 kts | 332° |
| 2026-04-30 21:43 | 38.87520 | 1.37075 | 7 ft | 7 kts | 327° |
| 2026-04-30 21:43 | 38.87504 | 1.36962 | 8 ft | 15 kts | 241° |
| 2026-04-30 21:43 | 38.87450 | 1.36830 | 9 ft | 14 kts | 242° |
| 2026-04-30 21:44 | 38.87397 | 1.36803 | 7 ft | 14 kts | 159° |
| 2026-04-30 21:44 | 38.87315 | 1.36856 | 8 ft | 13 kts | 153° |
| 2026-04-30 21:44 | 38.87255 | 1.36791 | 8 ft | 13 kts | 242° |
| 2026-04-30 21:44 | 38.87211 | 1.36683 | 8 ft | 15 kts | 242° |
| 2026-04-30 21:45 | 38.87158 | 1.36541 | 7 ft | 20 kts | 241° |
| 2026-04-30 21:45 | 38.87073 | 1.36350 | 8 ft | 28 kts | 242° |
| 2026-04-30 21:45 | 38.86976 | 1.36112 | 7 ft | 30 kts | 243° |
| 2026-04-30 21:45 | 38.86884 | 1.35889 | 7 ft | 18 kts | 242° |
| 2026-04-30 21:46 | 38.86843 | 1.35790 | 8 ft | 12 kts | 239° |
| 2026-04-30 21:46 | 38.86773 | 1.35778 | 6 ft | 12 kts | 148° |
| 2026-04-30 21:46 | 38.86733 | 1.35871 | 5 ft | 12 kts | 113° |
| 2026-04-30 21:46 | 38.86732 | 1.35973 | 5 ft | 13 kts | 63° |
| 2026-04-30 21:47 | 38.86843 | 1.36246 | 5 ft | 69 kts | 61° |
| 2026-04-30 21:47 | 38.87180 | 1.37058 | 10 ft | 135 kts | 62° |
| 2026-04-30 21:47 | 38.87707 | 1.38320 | 123 ft | 178 kts | 62° |
| 2026-04-30 21:47 | 38.88284 | 1.39682 | 1039 ft | 171 kts | 64° |
| 2026-04-30 21:48 | 38.88650 | 1.41192 | 1679 ft | 189 kts | 76° |
| 2026-04-30 21:48 | 38.88939 | 1.42940 | 2175 ft | 207 kts | 79° |
| 2026-04-30 21:48 | 38.89212 | 1.44791 | 2786 ft | 214 kts | 78° |
| 2026-04-30 21:48 | 38.89515 | 1.46674 | 3472 ft | 217 kts | 77° |
| 2026-04-30 21:49 | 38.90044 | 1.48545 | 3902 ft | 238 kts | 51° |
| 2026-04-30 21:49 | 38.91464 | 1.49755 | 4313 ft | 258 kts | 13° |
| 2026-04-30 21:49 | 38.93270 | 1.49727 | 5137 ft | 263 kts | 353° |
| 2026-04-30 21:49 | 38.95100 | 1.49378 | 5738 ft | 266 kts | 352° |
| 2026-04-30 21:50 | 38.96933 | 1.49008 | 6517 ft | 270 kts | 351° |
| 2026-04-30 21:50 | 38.98798 | 1.48641 | 7336 ft | 273 kts | 351° |
| 2026-04-30 21:50 | 39.00693 | 1.48279 | 8116 ft | 278 kts | 351° |
| 2026-04-30 21:50 | 39.02631 | 1.47921 | 8882 ft | 284 kts | 350° |
| 2026-04-30 21:51 | 39.04608 | 1.47564 | 9669 ft | 289 kts | 350° |
| 2026-04-30 21:51 | 39.06622 | 1.47207 | 10385 ft | 296 kts | 349° |
| 2026-04-30 21:51 | 39.08742 | 1.46832 | 10630 ft | 321 kts | 349° |
| 2026-04-30 21:51 | 39.11031 | 1.46433 | 10954 ft | 339 kts | 350° |
| 2026-04-30 21:52 | 39.13392 | 1.46027 | 11642 ft | 344 kts | 350° |
| 2026-04-30 21:52 | 39.15774 | 1.45622 | 12431 ft | 347 kts | 349° |
| 2026-04-30 21:52 | 39.18176 | 1.45215 | 13173 ft | 351 kts | 349° |
| 2026-04-30 21:52 | 39.20613 | 1.44800 | 13900 ft | 355 kts | 349° |
| 2026-04-30 21:53 | 39.23079 | 1.44377 | 14551 ft | 359 kts | 349° |
| 2026-04-30 21:53 | 39.25570 | 1.43948 | 15224 ft | 363 kts | 349° |
| 2026-04-30 21:53 | 39.28088 | 1.43521 | 15881 ft | 367 kts | 349° |
| 2026-04-30 21:53 | 39.30635 | 1.43088 | 16535 ft | 371 kts | 350° |
| 2026-04-30 21:54 | 39.33206 | 1.42651 | 17176 ft | 375 kts | 350° |
| 2026-04-30 21:54 | 39.35810 | 1.42206 | 17834 ft | 379 kts | 350° |
| 2026-04-30 21:54 | 39.38433 | 1.41757 | 18494 ft | 382 kts | 350° |
| 2026-04-30 21:54 | 39.41077 | 1.41304 | 19051 ft | 385 kts | 350° |
| 2026-04-30 21:55 | 39.43748 | 1.40846 | 19601 ft | 389 kts | 350° |
| 2026-04-30 21:55 | 39.46443 | 1.40384 | 20142 ft | 392 kts | 350° |
| 2026-04-30 21:55 | 39.49160 | 1.39917 | 20702 ft | 396 kts | 350° |
| 2026-04-30 21:55 | 39.51902 | 1.39445 | 21230 ft | 399 kts | 350° |
| 2026-04-30 21:56 | 39.54670 | 1.38969 | 21754 ft | 403 kts | 350° |
| 2026-04-30 21:56 | 39.57459 | 1.38489 | 22277 ft | 406 kts | 350° |
| 2026-04-30 21:56 | 39.60272 | 1.38005 | 22813 ft | 409 kts | 350° |
| 2026-04-30 21:56 | 39.63103 | 1.37570 | 23335 ft | 412 kts | 351° |
| 2026-04-30 21:57 | 39.65973 | 1.37187 | 23797 ft | 416 kts | 352° |
| 2026-04-30 21:57 | 39.68862 | 1.36823 | 24214 ft | 419 kts | 352° |
| 2026-04-30 21:57 | 39.71775 | 1.36457 | 24650 ft | 421 kts | 352° |
| 2026-04-30 21:57 | 39.74696 | 1.36086 | 25076 ft | 423 kts | 351° |
| 2026-04-30 21:58 | 39.77634 | 1.35707 | 25488 ft | 426 kts | 351° |
| 2026-04-30 21:58 | 39.80590 | 1.35321 | 25896 ft | 428 kts | 351° |
| 2026-04-30 21:58 | 39.83563 | 1.34929 | 26297 ft | 431 kts | 351° |
| 2026-04-30 21:58 | 39.86552 | 1.34534 | 26676 ft | 433 kts | 351° |
| 2026-04-30 21:59 | 39.89562 | 1.34134 | 27053 ft | 436 kts | 351° |
| 2026-04-30 21:59 | 39.92585 | 1.33733 | 27422 ft | 438 kts | 351° |
| 2026-04-30 21:59 | 39.95590 | 1.33333 | 27786 ft | 441 kts | 351° |
| 2026-04-30 22:00 | 40.01725 | 1.32517 | 28489 ft | 446 kts | 351° |
| 2026-04-30 22:00 | 40.07943 | 1.31688 | 29118 ft | 452 kts | 351° |
| 2026-04-30 22:00 | 40.11081 | 1.31269 | 29447 ft | 454 kts | 351° |
| 2026-04-30 22:01 | 40.14228 | 1.30849 | 29790 ft | 456 kts | 351° |
| 2026-04-30 22:01 | 40.17394 | 1.30427 | 30120 ft | 458 kts | 351° |
| 2026-04-30 22:01 | 40.20576 | 1.30001 | 30387 ft | 460 kts | 350° |
| 2026-04-30 22:01 | 40.23768 | 1.29574 | 30636 ft | 463 kts | 350° |
| 2026-04-30 22:02 | 40.26975 | 1.29144 | 30913 ft | 464 kts | 350° |
| 2026-04-30 22:02 | 40.30191 | 1.28713 | 31230 ft | 464 kts | 350° |
| 2026-04-30 22:02 | 40.33394 | 1.28284 | 31586 ft | 463 kts | 349° |
| 2026-04-30 22:02 | 40.36591 | 1.27854 | 31962 ft | 461 kts | 349° |
| 2026-04-30 22:03 | 40.39781 | 1.27425 | 32314 ft | 460 kts | 349° |
| 2026-04-30 22:03 | 40.42960 | 1.26995 | 32643 ft | 459 kts | 349° |
| 2026-04-30 22:03 | 40.46139 | 1.26565 | 32976 ft | 459 kts | 348° |
| 2026-04-30 22:03 | 40.49310 | 1.26135 | 33337 ft | 458 kts | 349° |
| 2026-04-30 22:04 | 40.52474 | 1.25706 | 33687 ft | 456 kts | 348° |
| 2026-04-30 22:04 | 40.55630 | 1.25278 | 34007 ft | 456 kts | 348° |
| 2026-04-30 22:04 | 40.61937 | 1.24421 | 34542 ft | 455 kts | 348° |
| 2026-04-30 22:05 | 40.65081 | 1.23993 | 34791 ft | 455 kts | 348° |
| 2026-04-30 22:05 | 40.68229 | 1.23565 | 35039 ft | 455 kts | 349° |
| 2026-04-30 22:05 | 40.71374 | 1.23136 | 35293 ft | 454 kts | 349° |
| 2026-04-30 22:05 | 40.74517 | 1.22706 | 35536 ft | 454 kts | 349° |
| 2026-04-30 22:06 | 40.77656 | 1.22274 | 35764 ft | 453 kts | 349° |
| 2026-04-30 22:06 | 40.83927 | 1.21409 | 36239 ft | 453 kts | 349° |
| 2026-04-30 22:06 | 40.87055 | 1.20977 | 36468 ft | 452 kts | 349° |
| 2026-04-30 22:07 | 40.90187 | 1.20544 | 36690 ft | 452 kts | 349° |
| 2026-04-30 22:07 | 40.93312 | 1.20111 | 36881 ft | 453 kts | 350° |
| 2026-04-30 22:07 | 40.96451 | 1.19676 | 37050 ft | 454 kts | 350° |
| 2026-04-30 22:07 | 40.99586 | 1.19242 | 37271 ft | 453 kts | 350° |
| 2026-04-30 22:08 | 41.02713 | 1.18809 | 37536 ft | 451 kts | 350° |
| 2026-04-30 22:08 | 41.05837 | 1.18375 | 37753 ft | 451 kts | 350° |
| 2026-04-30 22:08 | 41.08959 | 1.17941 | 37930 ft | 451 kts | 350° |
| 2026-04-30 22:08 | 41.12079 | 1.17507 | 38116 ft | 451 kts | 351° |
| 2026-04-30 22:09 | 41.18353 | 1.16695 | 38162 ft | 454 kts | 352° |
| 2026-04-30 22:09 | 41.24636 | 1.16068 | 38151 ft | 451 kts | 352° |
| 2026-04-30 22:10 | 41.30864 | 1.15436 | 38152 ft | 448 kts | 352° |
| 2026-04-30 22:10 | 41.37018 | 1.14797 | 38159 ft | 445 kts | 352° |
| 2026-04-30 22:11 | 41.46265 | 1.13842 | 38167 ft | 444 kts | 352° |
| 2026-04-30 22:12 | 41.52437 | 1.13204 | 38171 ft | 446 kts | 352° |
| 2026-04-30 22:12 | 41.58640 | 1.12541 | 38168 ft | 448 kts | 352° |
| 2026-04-30 22:13 | 41.64865 | 1.11846 | 38161 ft | 450 kts | 352° |
| 2026-04-30 22:13 | 41.71126 | 1.11155 | 38158 ft | 452 kts | 352° |
| 2026-04-30 22:14 | 41.77411 | 1.10495 | 38159 ft | 454 kts | 352° |
| 2026-04-30 22:14 | 41.83706 | 1.09840 | 38143 ft | 454 kts | 352° |
| 2026-04-30 22:15 | 41.89995 | 1.09181 | 38136 ft | 453 kts | 352° |
| 2026-04-30 22:15 | 41.96256 | 1.08521 | 38135 ft | 451 kts | 352° |
| 2026-04-30 22:16 | 42.02496 | 1.07862 | 38142 ft | 449 kts | 352° |
| 2026-04-30 22:17 | 42.14891 | 1.06548 | 38156 ft | 445 kts | 352° |
| 2026-04-30 22:17 | 42.24119 | 1.05538 | 38193 ft | 442 kts | 352° |
| 2026-04-30 22:18 | 42.33299 | 1.04526 | 38185 ft | 440 kts | 352° |
| 2026-04-30 22:19 | 42.42442 | 1.03518 | 38208 ft | 438 kts | 352° |
| 2026-04-30 22:20 | 42.51553 | 1.02526 | 38196 ft | 437 kts | 352° |
| 2026-04-30 22:20 | 42.60661 | 1.01538 | 38202 ft | 438 kts | 352° |
| 2026-04-30 22:21 | 42.66696 | 1.00880 | 38215 ft | 439 kts | 351° |
| 2026-04-30 22:21 | 42.72826 | 1.00211 | 38215 ft | 440 kts | 351° |
| 2026-04-30 22:22 | 42.78885 | 0.99368 | 38186 ft | 438 kts | 344° |
| 2026-04-30 22:22 | 42.84811 | 0.97367 | 38192 ft | 435 kts | 341° |
| 2026-04-30 22:23 | 42.90632 | 0.95248 | 38198 ft | 437 kts | 341° |
| 2026-04-30 22:23 | 42.96519 | 0.93162 | 38207 ft | 438 kts | 341° |
| 2026-04-30 22:24 | 43.02437 | 0.91108 | 38218 ft | 439 kts | 341° |
| 2026-04-30 22:24 | 43.08365 | 0.89059 | 38194 ft | 439 kts | 341° |
| 2026-04-30 22:25 | 43.14288 | 0.87007 | 38180 ft | 438 kts | 341° |
| 2026-04-30 22:25 | 43.20182 | 0.84960 | 38185 ft | 436 kts | 341° |
| 2026-04-30 22:26 | 43.28965 | 0.81900 | 38178 ft | 433 kts | 341° |
| 2026-04-30 22:27 | 43.34790 | 0.79865 | 38182 ft | 431 kts | 341° |
| 2026-04-30 22:27 | 43.43474 | 0.76823 | 38199 ft | 428 kts | 341° |
| 2026-04-30 22:28 | 43.52010 | 0.73365 | 38189 ft | 425 kts | 336° |
| 2026-04-30 22:29 | 43.62282 | 0.68565 | 38191 ft | 427 kts | 337° |
| 2026-04-30 22:31 | 43.82166 | 0.59429 | 38179 ft | 433 kts | 337° |
| 2026-04-30 22:32 | 43.96464 | 0.52843 | 38184 ft | 435 kts | 337° |
| 2026-04-30 22:33 | 44.10794 | 0.46208 | 38184 ft | 433 kts | 337° |
| 2026-04-30 22:35 | 44.25036 | 0.39578 | 38187 ft | 431 kts | 337° |
| 2026-04-30 22:36 | 44.39535 | 0.34317 | 38177 ft | 433 kts | 346° |
| 2026-04-30 22:37 | 44.51412 | 0.31477 | 38175 ft | 433 kts | 346° |
| 2026-04-30 22:38 | 44.63264 | 0.28461 | 38195 ft | 433 kts | 346° |
| 2026-04-30 22:39 | 44.72171 | 0.26168 | 38186 ft | 434 kts | 346° |
| 2026-04-30 22:40 | 44.90046 | 0.21552 | 38187 ft | 436 kts | 346° |
| 2026-04-30 22:41 | 45.04982 | 0.17672 | 38179 ft | 437 kts | 346° |
| 2026-04-30 22:43 | 45.22931 | 0.12983 | 38187 ft | 437 kts | 347° |
| 2026-04-30 22:44 | 45.34866 | 0.09849 | 38183 ft | 438 kts | 347° |
| 2026-04-30 22:45 | 45.52830 | 0.05104 | 38181 ft | 438 kts | 347° |
| 2026-04-30 22:47 | 45.70802 | 0.00327 | 38182 ft | 438 kts | 347° |
| 2026-04-30 22:48 | 45.82793 | -0.02877 | 38171 ft | 438 kts | 348° |
| 2026-04-30 22:49 | 46.00770 | -0.07708 | 38166 ft | 438 kts | 348° |
| 2026-04-30 22:51 | 46.18750 | -0.12572 | 38204 ft | 437 kts | 349° |
| 2026-04-30 22:52 | 46.27752 | -0.15025 | 38172 ft | 443 kts | 348° |
| 2026-04-30 22:53 | 46.39924 | -0.18346 | 38162 ft | 447 kts | 348° |
| 2026-04-30 22:53 | 46.49064 | -0.20846 | 38167 ft | 447 kts | 348° |
| 2026-04-30 22:55 | 46.64299 | -0.25039 | 38159 ft | 444 kts | 348° |
| 2026-04-30 22:56 | 46.76368 | -0.28379 | 38169 ft | 440 kts | 348° |
| 2026-04-30 22:57 | 46.91324 | -0.32538 | 38176 ft | 436 kts | 348° |
| 2026-04-30 22:58 | 47.03256 | -0.35874 | 38171 ft | 437 kts | 348° |
| 2026-04-30 22:59 | 47.21215 | -0.40922 | 38164 ft | 440 kts | 348° |